Time;durP1;ratioP1;P1;durP2;ratioP2;P2;SDS_P1;SDS_P2;PMS_P1;PMS_P2;Temp;Humidity;BMP_temperature;BMP_pressure;BME280_temperature;BME280_humidity;BME280_pressure;Samples;Min_cycle;Max_cycle;Signal;HPM_P1;HPM_P2
2022/11/09 00:00:05;;;;;;;5.53;0.93;;;12.10;99.90;;;;;;5036373;28;20511;-94
2022/11/09 00:02:31;;;;;;;3.25;1.08;;;12.10;99.90;;;;;;5053211;28;20044;-94
2022/11/09 00:04:57;;;;;;;4.57;0.93;;;12.00;99.90;;;;;;5036928;28;20565;-93
2022/11/09 00:07:23;;;;;;;4.78;0.82;;;12.00;99.90;;;;;;5036652;28;20086;-93
2022/11/09 00:09:48;;;;;;;7.10;1.08;;;12.50;99.90;;;;;;5036792;28;20108;-93
2022/11/09 00:12:14;;;;;;;4.88;0.93;;;12.10;99.90;;;;;;5020363;28;20047;-93
2022/11/09 00:14:40;;;;;;;5.45;0.98;;;12.00;99.90;;;;;;5038606;28;20068;-93
2022/11/09 00:17:05;;;;;;;3.75;1.08;;;12.00;99.90;;;;;;5039573;28;20411;-94
2022/11/09 00:19:34;;;;;;;7.05;1.50;;;12.10;99.90;;;;;;5042660;28;20052;-94
2022/11/09 00:22:00;;;;;;;3.75;1.10;;;12.80;99.90;;;;;;5036108;28;20144;-94
2022/11/09 00:24:25;;;;;;;4.30;1.20;;;12.80;99.90;;;;;;5048046;28;20032;-93
2022/11/09 00:26:51;;;;;;;4.32;1.20;;;12.90;99.90;;;;;;5024012;28;20036;-94
2022/11/09 00:29:17;;;;;;;3.13;1.20;;;12.10;99.90;;;;;;5020583;28;20048;-94
2022/11/09 00:31:42;;;;;;;10.55;1.73;;;12.10;99.90;;;;;;5038351;28;20082;-94
2022/11/09 00:34:08;;;;;;;3.72;1.70;;;12.10;99.90;;;;;;5020005;28;20558;-94
2022/11/09 00:36:34;;;;;;;9.23;1.30;;;12.10;99.90;;;;;;5020167;28;20048;-93
2022/11/09 00:39:00;;;;;;;6.65;1.30;;;12.10;99.90;;;;;;5036659;28;20045;-92
2022/11/09 00:41:26;;;;;;;4.97;1.15;;;12.10;99.90;;;;;;5052565;28;20080;-91
2022/11/09 00:43:52;;;;;;;3.92;1.00;;;12.10;99.90;;;;;;5053402;28;20044;-92
2022/11/09 00:46:18;;;;;;;5.32;1.88;;;12.10;99.90;;;;;;5035583;28;20564;-93
2022/11/09 00:48:45;;;;;;;5.32;1.35;;;12.60;99.90;;;;;;5057734;28;20040;-94
2022/11/09 00:51:12;;;;;;;7.88;2.30;;;12.10;99.90;;;;;;5060917;28;20040;-94
2022/11/09 00:53:38;;;;;;;4.95;1.15;;;12.40;99.90;;;;;;5039587;28;20487;-96
2022/11/09 00:56:06;;;;;;;6.03;1.60;;;12.20;99.90;;;;;;5072804;28;20059;-95
2022/11/09 00:58:34;;;;;;;3.90;1.35;;;12.20;99.90;;;;;;5056101;28;20040;-95
2022/11/09 01:01:15;;;;;;;6.93;1.48;;;12.20;99.90;;;;;;5060404;28;20032;-94
2022/11/09 01:03:41;;;;;;;6.15;1.67;;;12.20;99.90;;;;;;5062444;28;20043;-96
2022/11/09 01:06:12;;;;;;;8.25;1.75;;;12.30;99.90;;;;;;5081921;28;20099;-93
2022/11/09 01:08:38;;;;;;;4.97;1.52;;;12.30;99.90;;;;;;5051557;28;20036;-93
2022/11/09 01:11:06;;;;;;;5.78;1.77;;;13.30;99.90;;;;;;5019444;28;20036;-92
2022/11/09 01:13:32;;;;;;;8.48;2.17;;;12.30;99.90;;;;;;5034466;28;20079;-92
2022/11/09 01:15:58;;;;;;;6.70;1.65;;;12.90;99.90;;;;;;5034213;28;20436;-92
2022/11/09 01:18:24;;;;;;;5.18;1.52;;;12.30;99.90;;;;;;5051400;28;20177;-94
2022/11/09 01:20:50;;;;;;;7.82;1.60;;;12.40;99.90;;;;;;5017555;28;20410;-92
2022/11/09 01:23:17;;;;;;;5.97;1.65;;;12.40;99.90;;;;;;5035483;28;20097;-93
2022/11/09 01:25:43;;;;;;;11.55;1.42;;;12.40;99.90;;;;;;5034304;28;20198;-92
2022/11/09 01:28:10;;;;;;;9.05;1.85;;;12.40;99.90;;;;;;5035958;28;20079;-92
2022/11/09 01:30:42;;;;;;;5.85;1.67;;;12.40;99.90;;;;;;5035234;28;20098;-93
2022/11/09 01:33:10;;;;;;;4.15;1.10;;;12.30;99.90;;;;;;5034902;28;20084;-91
2022/11/09 01:35:37;;;;;;;4.93;1.40;;;12.40;99.90;;;;;;5052122;28;20398;-92
2022/11/09 01:38:04;;;;;;;5.53;1.90;;;12.70;99.90;;;;;;5034798;28;20040;-93
2022/11/09 01:40:31;;;;;;;3.88;1.25;;;12.40;99.90;;;;;;5037256;28;20240;-96
2022/11/09 01:42:57;;;;;;;5.72;2.13;;;12.60;99.90;;;;;;5052742;28;20047;-95
2022/11/09 01:45:28;;;;;;;6.35;1.52;;;12.50;99.90;;;;;;5036054;28;20118;-93
2022/11/09 01:48:04;;;;;;;8.65;1.35;;;12.50;99.90;;;;;;5054990;28;20044;-92
2022/11/09 01:50:41;;;;;;;6.55;1.58;;;12.50;99.90;;;;;;5061200;28;20079;-93
2022/11/09 01:53:14;;;;;;;8.85;2.05;;;12.50;99.90;;;;;;5060277;28;20055;-96
2022/11/09 01:55:41;;;;;;;6.72;1.92;;;12.60;99.90;;;;;;5063251;28;20051;-92
2022/11/09 01:58:12;;;;;;;14.77;3.88;;;12.60;99.90;;;;;;5048571;28;20044;-95
2022/11/09 02:00:43;;;;;;;6.95;1.90;;;12.60;99.90;;;;;;5061970;28;20040;-91
2022/11/09 02:03:24;;;;;;;8.57;1.55;;;12.70;99.90;;;;;;5072879;28;20399;-93
2022/11/09 02:05:51;;;;;;;4.72;1.73;;;12.70;99.90;;;;;;5069772;28;20089;-92
2022/11/09 02:08:19;;;;;;;6.05;1.80;;;12.70;99.90;;;;;;5051128;28;20109;-92
2022/11/09 02:10:56;;;;;;;7.10;1.88;;;12.70;99.90;;;;;;5051785;28;20106;-90
2022/11/09 02:13:25;;;;;;;6.88;1.45;;;12.60;99.90;;;;;;5068628;28;20039;-92
2022/11/09 02:15:51;;;;;;;21.38;3.00;;;12.50;99.90;;;;;;5067406;28;20047;-93
2022/11/09 02:18:18;;;;;;;7.57;1.67;;;12.50;99.90;;;;;;5051159;28;20044;-91
2022/11/09 02:20:49;;;;;;;12.00;2.25;;;12.50;99.90;;;;;;5051993;28;20121;-92
2022/11/09 02:23:15;;;;;;;7.15;1.60;;;12.60;99.90;;;;;;5055259;28;20048;-93
2022/11/09 02:25:48;;;;;;;11.98;2.58;;;13.10;99.90;;;;;;5038126;28;20467;-93
2022/11/09 02:28:15;;;;;;;;;;;12.40;99.90;;;;;;5056254;28;20044;-93
2022/11/09 02:30:43;;;;;;;6.32;1.42;;;12.30;99.90;;;;;;5054738;28;19920;-92
2022/11/09 02:33:08;;;;;;;8.50;1.60;;;12.30;99.90;;;;;;5038176;28;20032;-92
2022/11/09 02:35:34;;;;;;;13.38;1.88;;;12.50;99.90;;;;;;5022509;28;20161;-91
2022/11/09 02:38:00;;;;;;;14.52;1.90;;;12.60;99.90;;;;;;5055538;28;20040;-92
2022/11/09 02:40:40;;;;;;;10.50;1.90;;;12.30;99.90;;;;;;5026502;28;20076;-95
2022/11/09 02:43:25;;;;;;;8.50;1.30;;;12.20;99.90;;;;;;5095607;28;20066;-96
2022/11/09 02:46:30;;;;;;;5.78;1.40;;;12.20;99.90;;;;;;5079274;28;20044;-96
2022/11/09 02:48:56;;;;;;;11.95;2.00;;;12.20;99.90;;;;;;5026027;28;20061;-96
2022/11/09 02:51:22;;;;;;;6.07;1.77;;;13.10;99.90;;;;;;5002078;28;20049;-96
2022/11/09 02:53:48;;;;;;;10.10;1.73;;;12.10;99.90;;;;;;4999121;28;20075;-94
2022/11/09 02:56:24;;;;;;;8.45;1.60;;;13.10;99.90;;;;;;5002484;28;20048;-96
2022/11/09 02:58:49;;;;;;;7.63;1.70;;;12.10;99.90;;;;;;5005895;28;20068;-90
2022/11/09 03:01:15;;;;;;;16.20;1.80;;;12.50;99.90;;;;;;4981746;28;20433;-91
2022/11/09 03:03:41;;;;;;;16.17;2.35;;;12.80;99.90;;;;;;4996603;28;20080;-91
2022/11/09 03:06:07;;;;;;;11.20;1.70;;;12.10;99.90;;;;;;4996959;28;20060;-90
2022/11/09 03:08:32;;;;;;;10.93;3.35;;;12.10;99.90;;;;;;4998102;28;20048;-91
2022/11/09 03:10:59;;;;;;;8.85;1.67;;;13.00;99.90;;;;;;4982278;28;20488;-96
2022/11/09 03:13:41;;;;;;;8.50;1.90;;;12.10;99.90;;;;;;5020410;28;20049;-96
2022/11/09 03:16:10;;;;;;;8.38;1.75;;;12.10;99.90;;;;;;5032253;28;20048;-95
2022/11/09 03:18:35;;;;;;;6.45;1.63;;;12.00;99.90;;;;;;5006495;28;20041;-95
2022/11/09 03:21:05;;;;;;;8.07;1.67;;;12.10;99.90;;;;;;5023524;28;20059;-93
2022/11/09 03:23:31;;;;;;;7.05;1.85;;;12.00;99.90;;;;;;5040739;28;20114;-94
2022/11/09 03:25:57;;;;;;;7.65;1.67;;;12.40;99.90;;;;;;5042194;28;20554;-96
2022/11/09 03:28:23;;;;;;;11.02;1.92;;;12.00;99.90;;;;;;5043859;28;20040;-94
2022/11/09 03:30:49;;;;;;;6.63;1.30;;;12.10;99.90;;;;;;5056153;28;20048;-93
2022/11/09 03:33:14;;;;;;;12.23;1.80;;;12.50;99.90;;;;;;5057043;28;20198;-94
2022/11/09 03:35:42;;;;;;;12.75;2.25;;;12.50;99.90;;;;;;5043801;28;20109;-93
2022/11/09 03:38:08;;;;;;;5.82;1.42;;;13.00;99.90;;;;;;5039608;28;20075;-93
2022/11/09 03:40:34;;;;;;;8.68;1.48;;;12.00;99.90;;;;;;5039710;28;20028;-93
2022/11/09 03:42:59;;;;;;;13.48;2.58;;;12.80;99.90;;;;;;5021189;28;20043;-93
2022/11/09 03:45:26;;;;;;;8.43;1.15;;;12.00;99.90;;;;;;5023480;28;20048;-93
2022/11/09 03:47:58;;;;;;;7.72;1.40;;;12.70;99.90;;;;;;5041601;28;20128;-96
2022/11/09 03:50:28;;;;;;;7.38;1.95;;;12.00;99.90;;;;;;5047947;28;20044;-96
2022/11/09 03:52:55;;;;;;;13.32;1.92;;;12.00;99.90;;;;;;5066818;28;20048;-96
2022/11/09 03:59:06;;;;;;;7.68;1.38;;;12.00;99.90;;;;;;5108972;28;20046;-96
2022/11/09 04:01:34;;;;;;;11.50;1.38;;;12.20;99.90;;;;;;5037495;28;20040;-96
2022/11/09 04:04:01;;;;;;;7.55;1.58;;;12.00;99.90;;;;;;5029408;28;20072;-95
2022/11/09 04:06:28;;;;;;;9.60;2.40;;;12.80;99.90;;;;;;5036083;28;20044;-96
2022/11/09 04:09:10;;;;;;;9.52;1.90;;;11.90;99.90;;;;;;5065849;28;20031;-96
2022/11/09 04:11:44;;;;;;;9.52;1.35;;;11.90;99.90;;;;;;5074305;28;20020;-96
2022/11/09 04:14:10;;;;;;;12.35;1.85;;;11.10;99.90;;;;;;5044603;28;20071;-95
2022/11/09 04:16:54;;;;;;;11.43;1.83;;;11.90;99.90;;;;;;5031824;28;20032;-96
2022/11/09 04:19:19;;;;;;;11.50;1.65;;;11.90;99.90;;;;;;5052680;28;20036;-94
2022/11/09 04:21:51;;;;;;;14.57;1.88;;;11.90;99.90;;;;;;5047912;28;20569;-96
2022/11/09 04:24:18;;;;;;;9.40;1.50;;;11.90;99.90;;;;;;5045002;28;20052;-95
2022/11/09 04:26:46;;;;;;;7.32;1.80;;;11.90;99.90;;;;;;5042424;28;20035;-96
2022/11/09 04:29:18;;;;;;;7.15;1.50;;;11.90;99.90;;;;;;5065737;28;20123;-96
2022/11/09 04:32:06;;;;;;;7.07;1.40;;;12.70;99.90;;;;;;5056648;28;20031;-96
2022/11/09 04:35:10;;;;;;;11.43;1.67;;;11.40;99.90;;;;;;5083832;28;20385;-96
2022/11/09 04:37:36;;;;;;;7.85;2.25;;;11.90;99.90;;;;;;5058996;28;20055;-94
2022/11/09 04:40:01;;;;;;;15.38;1.83;;;11.80;99.90;;;;;;5043879;28;20044;-94
2022/11/09 04:42:27;;;;;;;10.50;1.40;;;11.80;99.90;;;;;;5024797;28;20077;-96
2022/11/09 04:44:53;;;;;;;12.68;1.52;;;11.80;99.90;;;;;;5026338;28;20504;-94
2022/11/09 04:47:18;;;;;;;8.55;1.20;;;12.40;99.90;;;;;;5025751;28;20501;-94
2022/11/09 04:49:45;;;;;;;10.77;1.65;;;12.10;99.90;;;;;;5055682;28;20483;-95
2022/11/09 04:52:11;;;;;;;5.38;1.42;;;12.50;99.90;;;;;;5056975;28;20128;-92
2022/11/09 04:54:36;;;;;;;10.25;1.80;;;12.00;99.90;;;;;;5044169;28;20130;-95
2022/11/09 04:57:04;;;;;;;9.38;2.08;;;11.90;99.90;;;;;;5034226;28;20067;-96
2022/11/09 04:59:29;;;;;;;10.00;1.85;;;11.90;99.90;;;;;;5049730;28;20058;-96
2022/11/09 05:02:03;;;;;;;9.95;1.58;;;12.60;99.90;;;;;;5052022;28;20103;-95
2022/11/09 05:04:36;;;;;;;9.30;1.63;;;12.00;99.90;;;;;;5056935;28;20032;-95
2022/11/09 05:07:02;;;;;;;8.00;0.88;;;12.00;99.90;;;;;;5075778;28;20051;-95
2022/11/09 05:09:28;;;;;;;14.65;2.17;;;12.00;99.90;;;;;;5052432;28;20169;-96
2022/11/09 05:11:56;;;;;;;9.30;1.65;;;12.00;99.90;;;;;;5053836;28;20059;-96
2022/11/09 05:23:57;;;;;;;8.95;2.25;;;12.00;99.90;;;;;;5028026;28;20356;-91
2022/11/09 05:24:45;;;;;;;10.50;3.33;;;12.10;99.90;;;;;;5083954;28;20048;-95
2022/11/09 05:27:12;;;;;;;8.50;1.50;;;12.00;99.90;;;;;;5041497;28;20036;-96
2022/11/09 05:29:40;;;;;;;11.40;2.50;;;11.90;99.90;;;;;;5075186;28;20056;-96
2022/11/09 05:32:06;;;;;;;8.55;1.67;;;12.30;99.90;;;;;;5051177;28;20402;-95
2022/11/09 05:34:32;;;;;;;7.95;1.63;;;11.40;99.90;;;;;;5058331;28;20131;-96
2022/11/09 05:37:08;;;;;;;8.02;1.38;;;11.90;99.90;;;;;;5031576;28;20047;-94
2022/11/09 05:39:40;;;;;;;7.90;0.90;;;11.80;99.90;;;;;;5061656;28;20543;-95
2022/11/09 05:42:06;;;;;;;10.30;2.30;;;11.80;99.90;;;;;;5046925;28;20048;-94
2022/11/09 05:44:42;;;;;;;10.60;1.48;;;11.80;99.90;;;;;;5051821;28;20107;-95
2022/11/09 05:47:19;;;;;;;10.35;1.90;;;11.80;99.90;;;;;;5066699;28;20048;-96
2022/11/09 05:49:45;;;;;;;8.82;1.80;;;11.80;99.90;;;;;;5065329;28;20119;-95
2022/11/09 05:52:12;;;;;;;6.25;1.40;;;11.80;99.90;;;;;;5058380;28;20475;-91
2022/11/09 05:54:47;;;;;;;6.38;1.25;;;11.80;99.90;;;;;;5066154;28;20058;-96
2022/11/09 05:57:13;;;;;;;11.50;2.38;;;11.80;99.90;;;;;;5021962;28;20053;-95
2022/11/09 05:59:41;;;;;;;12.57;2.45;;;11.90;99.90;;;;;;4991434;28;20115;-96
2022/11/09 06:02:30;;;;;;;12.18;1.60;;;11.90;99.90;;;;;;5013752;28;20048;-96
2022/11/09 06:04:56;;;;;;;8.50;1.63;;;12.80;99.90;;;;;;4998645;28;20046;-92
2022/11/09 06:07:21;;;;;;;6.72;1.05;;;12.90;99.90;;;;;;4991963;28;20059;-92
2022/11/09 06:09:47;;;;;;;11.88;1.90;;;12.60;99.90;;;;;;5001009;28;20052;-96
2022/11/09 06:12:13;;;;;;;7.75;1.08;;;11.90;99.90;;;;;;4984834;28;20084;-96
2022/11/09 06:14:38;;;;;;;9.52;1.52;;;12.10;99.90;;;;;;4989227;28;20046;-89
2022/11/09 06:17:04;;;;;;;9.15;1.77;;;11.80;99.90;;;;;;4996523;28;20136;-89
2022/11/09 06:19:30;;;;;;;9.95;1.73;;;11.90;99.90;;;;;;5011002;28;20045;-91
2022/11/09 06:21:55;;;;;;;11.68;2.92;;;11.80;99.90;;;;;;4984614;28;20120;-93
2022/11/09 06:24:21;;;;;;;9.85;1.83;;;12.30;99.90;;;;;;4991869;28;20076;-92
2022/11/09 06:26:47;;;;;;;6.85;1.58;;;11.80;99.90;;;;;;5012082;28;20128;-91
2022/11/09 06:29:13;;;;;;;15.48;1.52;;;11.80;99.90;;;;;;5033071;28;20072;-91
2022/11/09 06:31:39;;;;;;;8.40;1.58;;;11.80;99.90;;;;;;5075296;28;20048;-88
2022/11/09 06:34:04;;;;;;;8.00;2.03;;;11.80;99.90;;;;;;5069817;28;20438;-88
2022/11/09 06:36:30;;;;;;;9.52;1.55;;;11.80;99.90;;;;;;5083581;28;20040;-93
2022/11/09 06:38:56;;;;;;;14.20;1.85;;;12.70;99.90;;;;;;5027094;28;20097;-96
2022/11/09 06:41:21;;;;;;;13.95;1.75;;;12.50;99.90;;;;;;5046496;28;20040;-95
2022/11/09 06:43:47;;;;;;;10.90;2.20;;;12.20;99.90;;;;;;5053055;28;20070;-96
2022/11/09 06:46:16;;;;;;;8.25;1.35;;;11.70;99.90;;;;;;5023749;28;20076;-95
2022/11/09 06:48:42;;;;;;;9.48;1.17;;;11.70;99.90;;;;;;5060425;28;20397;-91
2022/11/09 06:51:10;;;;;;;8.98;1.70;;;11.70;99.90;;;;;;5023588;28;20040;-95
2022/11/09 06:53:36;;;;;;;6.28;1.08;;;11.70;99.90;;;;;;5038743;28;20501;-94
2022/11/09 06:56:03;;;;;;;8.85;1.77;;;11.70;99.90;;;;;;5042537;28;20056;-96
2022/11/09 06:58:30;;;;;;;5.75;1.77;;;11.70;99.90;;;;;;5041447;28;20097;-96
2022/11/09 07:00:56;;;;;;;10.07;1.60;;;11.60;99.90;;;;;;5042670;28;20044;-96
2022/11/09 07:03:22;;;;;;;16.35;2.15;;;11.60;99.90;;;;;;5057035;28;20043;-94
2022/11/09 07:05:51;;;;;;;10.35;1.70;;;11.80;99.90;;;;;;5057340;28;20052;-96
2022/11/09 07:08:17;;;;;;;13.90;2.78;;;11.60;99.90;;;;;;5060975;28;20055;-96
2022/11/09 07:10:44;;;;;;;12.77;2.00;;;11.70;99.90;;;;;;5059577;28;20100;-96
2022/11/09 07:13:10;;;;;;;10.23;1.80;;;11.60;99.90;;;;;;5062138;28;20062;-94
2022/11/09 07:15:37;;;;;;;8.18;1.20;;;11.70;99.90;;;;;;5040130;28;20040;-94
2022/11/09 07:18:05;;;;;;;5.95;1.40;;;11.60;99.90;;;;;;5057777;28;20066;-96
2022/11/09 07:20:31;;;;;;;7.60;1.23;;;11.90;99.90;;;;;;5062847;28;20430;-96
2022/11/09 07:22:58;;;;;;;14.68;1.67;;;11.60;99.90;;;;;;5028117;28;20339;-96
2022/11/09 07:25:26;;;;;;;8.50;1.42;;;12.60;99.90;;;;;;5046711;28;20044;-96
2022/11/09 07:28:06;;;;;;;10.93;2.75;;;11.60;99.90;;;;;;5020416;28;20129;-95
2022/11/09 07:30:32;;;;;;;11.35;1.67;;;11.60;99.90;;;;;;5035799;28;20044;-93
2022/11/09 07:32:58;;;;;;;9.90;1.75;;;11.60;99.90;;;;;;5009668;28;20075;-96
2022/11/09 07:35:25;;;;;;;11.38;2.53;;;11.60;99.90;;;;;;5006352;28;20118;-96
2022/11/09 07:37:51;;;;;;;9.75;1.52;;;11.60;99.90;;;;;;5023410;28;20448;-96
2022/11/09 07:40:17;;;;;;;9.60;1.23;;;11.70;99.90;;;;;;5009097;28;20141;-96
2022/11/09 07:42:44;;;;;;;7.75;0.93;;;11.60;99.90;;;;;;5025307;28;20052;-96
2022/11/09 07:45:11;;;;;;;14.80;1.60;;;11.60;99.90;;;;;;5022272;28;20053;-96
2022/11/09 07:47:37;;;;;;;7.20;1.17;;;11.60;99.90;;;;;;5040042;28;20044;-93
2022/11/09 07:50:03;;;;;;;11.77;1.73;;;11.70;99.90;;;;;;5002671;28;20082;-96
2022/11/09 07:52:29;;;;;;;12.73;1.15;;;11.70;99.90;;;;;;5010743;28;20083;-96
2022/11/09 07:54:55;;;;;;;12.02;1.83;;;12.30;99.90;;;;;;5004925;28;20037;-96
2022/11/09 07:57:21;;;;;;;15.13;2.20;;;11.80;99.90;;;;;;5018362;28;20128;-93
2022/11/09 07:59:46;;;;;;;9.15;1.30;;;11.80;99.90;;;;;;5002124;28;20044;-96
2022/11/09 08:02:12;;;;;;;10.38;1.55;;;12.60;99.90;;;;;;5016960;28;20045;-93
2022/11/09 08:04:37;;;;;;;6.85;1.42;;;11.90;99.90;;;;;;5053231;28;20048;-95
2022/11/09 08:07:03;;;;;;;11.50;1.90;;;11.90;99.90;;;;;;4999481;28;20043;-94
2022/11/09 08:09:29;;;;;;;12.52;1.63;;;11.90;99.90;;;;;;5042775;28;20024;-95
2022/11/09 08:11:55;;;;;;;8.48;1.55;;;11.90;99.90;;;;;;5010510;28;20040;-96
2022/11/09 08:14:32;;;;;;;23.90;1.95;;;12.00;99.90;;;;;;5015786;28;20349;-96
2022/11/09 08:17:00;;;;;;;17.10;1.52;;;12.00;99.90;;;;;;5042917;28;20037;-96
2022/11/09 08:19:26;;;;;;;7.50;1.77;;;12.00;99.90;;;;;;5036163;28;20091;-95
2022/11/09 08:21:56;;;;;;;8.68;1.90;;;12.10;99.90;;;;;;5048619;28;20048;-94
2022/11/09 08:24:21;;;;;;;15.80;1.83;;;13.00;99.90;;;;;;5027286;28;20107;-94
2022/11/09 08:26:47;;;;;;;16.38;2.28;;;12.20;99.90;;;;;;5029047;28;20083;-93
2022/11/09 08:29:14;;;;;;;12.82;2.28;;;12.20;99.90;;;;;;5028413;28;20040;-94
2022/11/09 08:31:40;;;;;;;9.68;1.48;;;12.70;99.90;;;;;;5031881;28;20045;-96
2022/11/09 08:34:12;;;;;;;16.50;2.13;;;12.30;99.90;;;;;;5043130;28;20047;-93
2022/11/09 08:36:38;;;;;;;10.43;1.97;;;12.30;99.90;;;;;;5053457;28;20529;-95
2022/11/09 08:39:04;;;;;;;9.25;1.10;;;13.00;99.90;;;;;;5037208;28;20039;-93
2022/11/09 08:41:30;;;;;;;8.73;1.95;;;12.40;99.90;;;;;;5035272;28;20127;-92
2022/11/09 08:43:55;;;;;;;17.23;2.70;;;12.50;99.90;;;;;;5020435;28;20479;-93
2022/11/09 08:46:21;;;;;;;13.00;1.60;;;12.60;99.90;;;;;;5034366;28;20036;-91
2022/11/09 08:48:47;;;;;;;12.93;1.80;;;13.10;99.90;;;;;;5037271;28;20052;-95
2022/11/09 08:51:12;;;;;;;14.75;1.63;;;12.80;99.90;;;;;;5035046;28;20048;-94
2022/11/09 08:53:38;;;;;;;10.80;2.55;;;12.90;99.90;;;;;;5019393;28;20044;-95
2022/11/09 08:56:07;;;;;;;11.10;1.63;;;13.00;99.90;;;;;;5020273;28;20066;-93
2022/11/09 08:58:34;;;;;;;9.23;1.35;;;14.10;99.90;;;;;;5034291;28;20439;-94
2022/11/09 09:00:59;;;;;;;11.90;1.92;;;13.20;99.90;;;;;;5053000;28;20039;-91
2022/11/09 09:03:25;;;;;;;16.17;2.03;;;13.30;99.90;;;;;;5018775;28;20051;-93
2022/11/09 09:05:51;;;;;;;12.65;1.58;;;13.30;99.90;;;;;;5020705;28;20517;-94
2022/11/09 09:08:20;;;;;;;6.05;2.22;;;13.90;99.90;;;;;;5034743;28;20048;-93
2022/11/09 09:10:46;;;;;;;11.32;1.70;;;13.60;99.90;;;;;;5052270;28;20078;-92
2022/11/09 09:13:21;;;;;;;10.20;1.20;;;13.40;99.90;;;;;;5038215;28;20052;-93
2022/11/09 09:15:47;;;;;;;8.45;1.80;;;13.40;99.90;;;;;;5017467;28;20286;-94
2022/11/09 09:18:13;;;;;;;9.85;2.05;;;13.40;99.90;;;;;;5052866;28;20403;-95
2022/11/09 09:20:39;;;;;;;12.23;1.85;;;13.50;99.90;;;;;;5049963;28;20040;-95
2022/11/09 09:23:05;;;;;;;9.68;1.75;;;13.60;99.90;;;;;;5036500;28;20129;-91
2022/11/09 09:25:31;;;;;;;11.38;2.00;;;13.60;99.90;;;;;;5034787;28;20048;-94
2022/11/09 09:27:57;;;;;;;6.82;1.85;;;13.60;99.90;;;;;;5018432;28;20044;-94
2022/11/09 09:30:25;;;;;;;9.40;2.10;;;13.70;99.90;;;;;;5018224;28;20120;-94
2022/11/09 09:32:51;;;;;;;7.78;1.55;;;13.70;99.90;;;;;;5033534;28;20390;-90
2022/11/09 09:35:17;;;;;;;10.38;1.60;;;14.10;99.90;;;;;;5052935;28;20032;-93
2022/11/09 09:37:43;;;;;;;14.88;2.75;;;13.80;99.90;;;;;;5017158;28;20483;-92
2022/11/09 09:40:22;;;;;;;8.30;1.67;;;13.80;99.90;;;;;;5019293;28;20123;-94
2022/11/09 09:42:49;;;;;;;9.52;1.65;;;13.80;99.90;;;;;;5050697;28;20085;-93
2022/11/09 09:45:20;;;;;;;14.32;2.30;;;13.90;99.90;;;;;;5050119;28;20044;-91
2022/11/09 09:48:12;;;;;;;9.40;1.20;;;13.90;99.90;;;;;;5052499;28;20047;-94
2022/11/09 09:50:52;;;;;;;5.68;1.45;;;13.90;99.90;;;;;;5049982;28;20052;-92
2022/11/09 09:53:29;;;;;;;16.58;1.85;;;14.40;99.90;;;;;;5053565;28;20051;-92
2022/11/09 09:56:12;;;;;;;12.05;2.25;;;13.90;99.90;;;;;;5058855;28;20033;-94
2022/11/09 09:58:45;;;;;;;11.60;1.90;;;13.90;99.90;;;;;;5066601;28;20040;-91
2022/11/09 10:01:18;;;;;;;11.48;2.03;;;13.90;99.90;;;;;;5056684;28;20932;-91
2022/11/09 10:03:45;;;;;;;9.88;1.70;;;14.00;99.90;;;;;;5051625;28;20044;-92
2022/11/09 10:06:43;;;;;;;13.32;2.97;;;14.10;99.90;;;;;;5019783;28;20125;-93
2022/11/09 10:09:23;;;;;;;8.10;1.52;;;14.10;99.90;;;;;;5007776;28;20059;-93
2022/11/09 10:12:16;;;;;;;9.38;1.45;;;14.20;99.90;;;;;;5049457;28;20047;-93
2022/11/09 10:14:45;;;;;;;10.43;1.83;;;14.10;99.90;;;;;;5052094;28;20373;-93
2022/11/09 10:17:16;;;;;;;12.75;1.73;;;14.10;99.90;;;;;;5050610;28;20056;-94
2022/11/09 10:20:01;;;;;;;9.07;2.35;;;14.20;99.90;;;;;;5049023;28;20125;-92
2022/11/09 10:22:39;;;;;;;13.38;1.77;;;14.20;99.90;;;;;;5040029;28;20608;-95
2022/11/09 10:25:25;;;;;;;14.52;1.90;;;14.20;99.90;;;;;;5029140;28;20117;-94
2022/11/09 10:27:53;;;;;;;10.73;1.90;;;14.20;99.90;;;;;;5031516;28;20056;-95
2022/11/09 10:30:20;;;;;;;8.68;1.67;;;14.10;99.90;;;;;;5047946;28;20049;-92
2022/11/09 10:32:54;;;;;;;12.52;2.25;;;14.20;99.90;;;;;;5029519;28;20045;-95
2022/11/09 10:35:32;;;;;;;12.73;2.42;;;14.20;99.90;;;;;;5032148;28;20089;-93
2022/11/09 10:37:57;;;;;;;11.57;2.05;;;14.20;99.90;;;;;;5029482;28;20052;-92
2022/11/09 10:40:29;;;;;;;8.57;2.47;;;14.20;99.90;;;;;;4999419;28;20036;-90
2022/11/09 10:43:10;;;;;;;16.88;2.53;;;14.30;99.90;;;;;;5049908;28;20040;-91
2022/11/09 10:45:41;;;;;;;8.73;2.10;;;14.20;99.90;;;;;;5016569;28;20449;-95
2022/11/09 10:48:15;;;;;;;8.65;1.98;;;14.20;99.90;;;;;;5018709;28;20105;-93
2022/11/09 10:50:47;;;;;;;10.70;2.28;;;14.50;99.90;;;;;;5032671;28;20443;-93
2022/11/09 10:53:33;;;;;;;7.85;2.13;;;14.20;99.90;;;;;;5034707;28;20049;-92
2022/11/09 10:56:15;;;;;;;13.07;2.38;;;14.10;99.90;;;;;;5034614;28;20036;-93
2022/11/09 10:58:47;;;;;;;11.43;2.33;;;14.10;99.90;;;;;;5049241;28;20450;-90
2022/11/09 11:01:22;;;;;;;9.38;2.33;;;14.10;99.90;;;;;;5051149;28;20040;-91
2022/11/09 11:03:50;;;;;;;6.20;1.38;;;14.00;99.90;;;;;;5032259;28;20075;-90
2022/11/09 11:06:17;;;;;;;13.02;3.25;;;13.90;99.90;;;;;;5050889;28;20040;-94
2022/11/09 11:09:06;;;;;;;11.13;2.97;;;14.00;99.90;;;;;;5033604;28;20480;-91
2022/11/09 11:11:33;;;;;;;16.80;3.17;;;14.00;99.90;;;;;;5047288;28;20101;-92
2022/11/09 11:14:35;;;;;;;10.82;2.55;;;14.00;99.90;;;;;;5034256;28;20048;-89
2022/11/09 11:17:01;;;;;;;11.52;1.98;;;14.00;99.90;;;;;;5032543;28;20049;-93
2022/11/09 11:19:43;;;;;;;15.13;2.45;;;14.00;99.90;;;;;;5017041;28;20040;-94
2022/11/09 11:22:17;;;;;;;10.05;2.13;;;14.00;99.90;;;;;;5033989;28;20125;-92
2022/11/09 11:24:55;;;;;;;6.95;1.85;;;14.00;99.90;;;;;;5031619;28;20087;-91
2022/11/09 11:27:28;;;;;;;10.50;2.15;;;14.00;99.90;;;;;;5035162;28;20573;-91
2022/11/09 11:30:15;;;;;;;12.23;3.10;;;13.90;99.90;;;;;;5032728;28;20040;-91
2022/11/09 11:32:41;;;;;;;11.73;2.03;;;14.60;99.90;;;;;;5032214;28;20048;-90
2022/11/09 11:35:37;;;;;;;13.32;2.35;;;13.90;99.90;;;;;;5018492;28;20077;-92
2022/11/09 11:38:27;;;;;;;8.40;1.85;;;13.90;99.90;;;;;;5004891;28;20052;-93
2022/11/09 11:41:36;;;;;;;10.00;2.45;;;13.90;99.90;;;;;;5035740;28;20040;-93
2022/11/09 11:44:29;;;;;;;11.57;1.65;;;14.00;99.90;;;;;;5037388;28;20060;-93
2022/11/09 11:47:23;;;;;;;13.52;1.88;;;14.00;99.90;;;;;;5034326;28;20175;-91
2022/11/09 11:50:16;;;;;;;9.77;2.15;;;14.00;99.90;;;;;;5041688;28;20041;-92
2022/11/09 11:53:21;;;;;;;14.77;1.97;;;14.00;99.90;;;;;;5041278;28;20131;-90
2022/11/09 11:55:54;;;;;;;9.20;1.70;;;14.00;99.90;;;;;;5046649;28;20056;-91
2022/11/09 11:58:32;;;;;;;17.80;2.45;;;14.00;99.90;;;;;;5039627;28;20074;-92
2022/11/09 12:01:24;;;;;;;8.27;1.70;;;14.00;99.90;;;;;;5039393;28;20127;-92
2022/11/09 12:04:18;;;;;;;6.90;2.03;;;14.10;99.90;;;;;;5028145;28;20049;-91
2022/11/09 12:07:05;;;;;;;8.48;2.50;;;14.10;99.90;;;;;;5032618;28;20041;-91
2022/11/09 12:09:47;;;;;;;12.98;2.72;;;14.20;99.90;;;;;;5034095;28;20510;-94
2022/11/09 12:12:54;;;;;;;10.25;2.15;;;14.30;99.90;;;;;;5031172;28;20584;-90
2022/11/09 12:15:20;;;;;;;10.30;2.08;;;14.30;99.90;;;;;;5004145;28;20488;-93
2022/11/09 12:18:01;;;;;;;12.75;1.90;;;14.30;99.90;;;;;;5032808;28;20045;-94
2022/11/09 12:21:02;;;;;;;15.32;2.45;;;14.30;99.90;;;;;;5030001;28;20511;-93
2022/11/09 12:23:41;;;;;;;12.98;2.42;;;14.20;99.90;;;;;;5032020;28;20053;-91
2022/11/09 12:26:43;;;;;;;9.95;1.70;;;14.10;99.90;;;;;;5032561;28;20442;-93
2022/11/09 12:29:20;;;;;;;11.30;2.70;;;14.00;99.90;;;;;;5031039;28;20403;-92
2022/11/09 12:32:04;;;;;;;10.95;2.45;;;14.00;99.90;;;;;;5032808;28;20075;-92
2022/11/09 12:34:57;;;;;;;11.15;2.05;;;14.00;99.90;;;;;;5048309;28;20075;-92
2022/11/09 12:37:28;;;;;;;9.90;1.83;;;13.90;99.90;;;;;;5027836;28;20174;-91
2022/11/09 12:39:56;;;;;;;9.77;1.90;;;13.90;99.90;;;;;;5032753;28;20044;-90
2022/11/09 12:42:50;;;;;;;16.77;2.40;;;13.90;99.90;;;;;;5030348;28;20040;-92
2022/11/09 12:45:36;;;;;;;8.80;1.85;;;13.90;99.90;;;;;;5047278;28;20549;-93
2022/11/09 12:48:24;;;;;;;15.48;2.92;;;13.90;99.90;;;;;;5032883;28;20107;-94
2022/11/09 12:50:51;;;;;;;11.63;2.20;;;13.90;99.90;;;;;;5046914;28;20052;-93
2022/11/09 12:53:20;;;;;;;10.05;2.38;;;14.40;99.90;;;;;;5032792;28;20055;-92
2022/11/09 12:56:04;;;;;;;11.88;2.22;;;14.00;99.90;;;;;;5031715;28;20032;-90
2022/11/09 12:58:32;;;;;;;16.00;2.25;;;14.10;99.90;;;;;;5030087;28;20045;-92
2022/11/09 13:01:05;;;;;;;8.30;1.65;;;14.10;99.90;;;;;;5032135;28;20047;-91
2022/11/09 13:03:37;;;;;;;9.60;2.03;;;14.10;99.90;;;;;;5045922;28;20121;-94
2022/11/09 13:06:15;;;;;;;7.53;2.30;;;14.10;99.90;;;;;;5047718;28;20108;-92
2022/11/09 13:08:54;;;;;;;14.23;1.88;;;14.00;99.90;;;;;;5031371;28;20056;-93
2022/11/09 13:11:39;;;;;;;9.40;2.15;;;13.90;99.90;;;;;;5030266;28;20056;-93
2022/11/09 13:14:29;;;;;;;12.38;2.45;;;13.80;99.90;;;;;;5032224;28;20055;-94